Time;durP1;ratioP1;P1;durP2;ratioP2;P2;SDS_P1;SDS_P2;PMS_P1;PMS_P2;Temp;Humidity;BMP_temperature;BMP_pressure;BME280_temperature;BME280_humidity;BME280_pressure;Samples;Min_cycle;Max_cycle;Signal;HPM_P1;HPM_P2
2020/12/24 00:00:39;;;;;;;13.78;8.43;;;;;;;3.68;58.23;100979.37;1804305;79;21178;-76
2020/12/24 00:03:07;;;;;;;11.25;7.65;;;;;;;3.67;58.23;100987.41;1805886;79;21113;-77
2020/12/24 00:05:34;;;;;;;12.58;7.92;;;;;;;3.67;58.26;100990.05;1790641;80;21161;-74
2020/12/24 00:08:02;;;;;;;11.85;7.80;;;;;;;3.65;58.21;100994.62;1789136;80;21202;-78
2020/12/24 00:10:31;;;;;;;9.95;6.80;;;;;;;3.64;58.31;100992.92;1814457;79;21109;-78
2020/12/24 00:12:59;;;;;;;11.35;6.75;;;;;;;3.67;58.31;100995.34;1791194;80;21177;-77
2020/12/24 00:15:27;;;;;;;10.53;6.62;;;;;;;3.70;58.17;100993.36;1790042;80;21146;-80
2020/12/24 00:17:54;;;;;;;13.60;8.00;;;;;;;3.72;58.13;100999.87;1798796;79;21153;-75
2020/12/24 00:20:22;;;;;;;9.15;6.03;;;;;;;3.74;58.07;101003.28;1797956;78;21117;-76
2020/12/24 00:22:50;;;;;;;13.13;8.35;;;;;;;3.77;58.03;101003.94;1797908;79;22589;-75
2020/12/24 00:25:19;;;;;;;11.85;7.33;;;;;;;3.80;57.97;101005.04;1797426;79;21041;-76
2020/12/24 00:27:46;;;;;;;12.75;8.40;;;;;;;3.87;57.86;101012.61;1798448;77;21132;-77
2020/12/24 00:30:14;;;;;;;11.28;7.10;;;;;;;3.89;57.78;101014.18;1794329;77;21152;-77
2020/12/24 00:32:42;;;;;;;9.50;6.60;;;;;;;3.93;57.57;101009.05;1816211;79;21148;-77
2020/12/24 00:35:09;;;;;;;13.25;8.35;;;;;;;3.92;57.44;101017.97;1815985;79;21175;-78
2020/12/24 00:37:37;;;;;;;9.68;6.42;;;;;;;3.90;57.53;101005.27;1816189;79;21160;-77
2020/12/24 00:40:05;;;;;;;9.25;6.78;;;;;;;3.91;57.45;101001.70;1815805;79;21164;-78
2020/12/24 00:42:33;;;;;;;8.15;4.75;;;;;;;3.89;57.43;101003.58;1816144;79;21068;-78
2020/12/24 00:45:05;;;;;;;9.90;7.05;;;;;;;3.89;57.38;100997.44;1816230;78;21155;-77
2020/12/24 00:47:32;;;;;;;10.08;5.60;;;;;;;3.87;57.41;100999.35;1816216;79;21789;-79
2020/12/24 00:50:00;;;;;;;8.85;6.20;;;;;;;3.90;57.42;100995.16;1816099;79;21229;-76
2020/12/24 00:52:28;;;;;;;11.15;6.62;;;;;;;3.94;57.38;100992.20;1816303;79;21163;-76
2020/12/24 00:54:57;;;;;;;11.20;7.05;;;;;;;3.97;57.30;100989.35;1797837;79;21080;-78
2020/12/24 00:57:24;;;;;;;11.25;7.03;;;;;;;4.02;57.22;100983.73;1784234;80;21068;-76
2020/12/24 00:59:54;;;;;;;8.90;6.08;;;;;;;4.04;56.99;100988.00;1783990;80;22266;-77
2020/12/24 01:02:22;;;;;;;9.43;5.97;;;;;;;4.03;57.00;100979.65;1783965;80;21175;-77
2020/12/24 01:04:50;;;;;;;8.68;5.72;;;;;;;4.06;57.18;100985.23;1783969;80;21159;-76
2020/12/24 01:07:17;;;;;;;8.95;6.28;;;;;;;4.09;57.08;100977.09;1784217;80;22067;-79
2020/12/24 01:09:47;;;;;;;8.60;6.05;;;;;;;4.16;56.94;100974.85;1783545;79;21664;-78
2020/12/24 01:12:14;;;;;;;9.43;6.35;;;;;;;4.18;56.71;100967.62;1783974;80;22242;-76
2020/12/24 01:14:43;;;;;;;8.55;6.10;;;;;;;4.21;56.60;100968.75;1784134;80;21171;-78
2020/12/24 01:17:11;;;;;;;9.18;6.70;;;;;;;4.22;56.59;100966.47;1756076;80;21611;-77
2020/12/24 01:19:39;;;;;;;10.00;5.87;;;;;;;4.20;56.46;100957.78;1783661;80;21176;-77
2020/12/24 01:22:06;;;;;;;10.75;6.50;;;;;;;4.56;55.64;100955.23;1784102;80;21179;-78
2020/12/24 01:24:35;;;;;;;8.43;5.72;;;;;;;4.65;55.24;100948.44;1783890;80;21365;-76
2020/12/24 01:27:03;;;;;;;7.75;5.20;;;;;;;4.68;55.12;100948.23;1783945;79;21045;-77
2020/12/24 01:29:31;;;;;;;10.40;6.70;;;;;;;4.68;55.00;100952.66;1783988;80;21593;-77
2020/12/24 01:31:59;;;;;;;10.38;6.47;;;;;;;4.69;54.99;100946.42;1783900;80;21172;-77
2020/12/24 01:34:26;;;;;;;8.28;5.17;;;;;;;4.65;54.96;100940.96;1783973;80;21080;-76
2020/12/24 01:36:54;;;;;;;5.33;3.70;;;;;;;4.64;55.07;100940.59;1783972;80;21855;-78
2020/12/24 01:39:22;;;;;;;8.13;5.80;;;;;;;4.63;55.02;100943.70;1783620;80;21555;-77
2020/12/24 01:41:50;;;;;;;8.35;5.42;;;;;;;4.64;54.97;100941.44;1783539;80;21195;-76
2020/12/24 01:44:17;;;;;;;10.18;6.70;;;;;;;4.65;54.91;100941.80;1784086;80;21191;-77
2020/12/24 01:46:47;;;;;;;8.18;6.05;;;;;;;4.67;55.07;100944.34;1784169;80;21183;-79
2020/12/24 01:49:18;;;;;;;6.60;3.98;;;;;;;4.71;55.08;100949.31;1756122;80;21509;-78
2020/12/24 01:51:50;;;;;;;8.55;6.08;;;;;;;4.74;54.84;100954.91;1783975;80;21184;-75
2020/12/24 01:54:20;;;;;;;10.23;6.12;;;;;;;4.70;54.84;100952.09;1783942;80;21188;-78
2020/12/24 01:56:48;;;;;;;7.75;5.33;;;;;;;4.70;54.85;100945.46;1784011;79;21179;-78
2020/12/24 01:59:18;;;;;;;10.55;6.40;;;;;;;4.66;54.75;100947.47;1783964;79;21056;-79
2020/12/24 02:01:49;;;;;;;8.75;6.55;;;;;;;4.61;54.89;100950.09;1784174;80;22325;-76
2020/12/24 02:04:17;;;;;;;10.45;6.45;;;;;;;4.17;55.81;100957.50;1784205;80;21036;-76
2020/12/24 02:06:48;;;;;;;7.87;5.45;;;;;;;4.03;56.25;100950.49;1783608;80;21152;-75
2020/12/24 02:09:15;;;;;;;7.35;5.00;;;;;;;4.02;56.46;100950.13;1783653;79;21072;-74
2020/12/24 02:11:43;;;;;;;11.80;8.25;;;;;;;4.05;56.63;100951.25;1784038;79;21157;-74
2020/12/24 02:14:11;;;;;;;9.48;5.90;;;;;;;4.06;56.73;100958.25;1784040;79;21642;-78
2020/12/24 02:16:39;;;;;;;10.60;6.80;;;;;;;4.06;56.79;100961.38;1784017;79;21718;-78
2020/12/24 02:19:06;;;;;;;6.03;4.35;;;;;;;4.03;56.90;100964.23;1801874;79;21128;-75
2020/12/24 02:21:36;;;;;;;5.83;4.55;;;;;;;4.06;56.95;100963.55;1796587;79;21175;-77
2020/12/24 02:24:04;;;;;;;8.10;5.55;;;;;;;4.04;56.82;100950.89;1784173;79;21223;-76
2020/12/24 02:26:31;;;;;;;7.92;5.70;;;;;;;3.98;56.92;100947.30;1805216;79;21353;-75
2020/12/24 02:28:59;;;;;;;6.90;4.10;;;;;;;3.99;57.12;100953.45;1808456;78;21183;-77
2020/12/24 02:31:27;;;;;;;6.55;4.87;;;;;;;4.02;57.09;100957.23;1784045;80;21048;-75
2020/12/24 02:33:55;;;;;;;6.95;4.60;;;;;;;4.02;57.10;100960.73;1788560;79;21152;-75
2020/12/24 02:36:23;;;;;;;8.43;5.72;;;;;;;4.01;57.04;100953.73;1802910;79;21535;-77
2020/12/24 02:38:50;;;;;;;6.78;4.33;;;;;;;3.98;57.01;100955.27;1784011;79;21376;-74
2020/12/24 02:41:18;;;;;;;11.28;4.85;;;;;;;3.94;57.19;100955.57;1783793;79;21172;-74
2020/12/24 02:43:48;;;;;;;4.90;3.75;;;;;;;3.93;57.22;100953.40;1795267;79;21163;-77
2020/12/24 02:46:16;;;;;;;7.17;4.95;;;;;;;3.93;57.23;100952.08;1815797;79;21509;-75
2020/12/24 02:48:44;;;;;;;8.00;5.58;;;;;;;3.94;57.34;100958.22;1816108;79;21187;-78
2020/12/24 02:51:13;;;;;;;6.60;4.58;;;;;;;3.93;57.34;100958.70;1815637;79;21183;-77
2020/12/24 02:53:41;;;;;;;6.35;4.65;;;;;;;3.90;57.26;100952.27;1781627;79;21231;-75
2020/12/24 02:56:09;;;;;;;7.05;4.95;;;;;;;3.88;57.30;100952.02;1801729;79;21160;-77
2020/12/24 02:58:38;;;;;;;5.35;3.50;;;;;;;3.89;57.40;100956.36;1809582;79;21195;-78
2020/12/24 03:01:06;;;;;;;8.30;5.22;;;;;;;3.91;57.32;100949.17;1784002;80;21519;-76
2020/12/24 03:03:34;;;;;;;7.42;5.28;;;;;;;3.90;57.19;100944.32;1783957;79;21820;-79
2020/12/24 03:06:02;;;;;;;8.03;5.62;;;;;;;3.88;57.18;100950.21;1783785;80;21622;-78
2020/12/24 03:08:29;;;;;;;8.48;5.12;;;;;;;3.87;57.23;100948.52;1785906;79;21180;-78
2020/12/24 03:10:57;;;;;;;7.92;5.05;;;;;;;3.92;57.20;100955.69;1784132;80;21175;-77
2020/12/24 03:13:25;;;;;;;8.15;5.85;;;;;;;3.96;57.07;100949.70;1809146;79;21072;-78
2020/12/24 03:15:54;;;;;;;6.40;4.53;;;;;;;4.33;56.17;100948.87;1796921;79;21357;-77
2020/12/24 03:18:22;;;;;;;4.65;3.62;;;;;;;4.48;55.68;100956.23;1783839;79;21171;-78
2020/12/24 03:20:52;;;;;;;5.40;3.90;;;;;;;4.54;55.36;100950.53;1783428;80;21180;-77
2020/12/24 03:23:19;;;;;;;5.47;3.60;;;;;;;4.58;55.31;100951.98;1811607;79;21180;-77
2020/12/24 03:25:47;;;;;;;7.80;5.22;;;;;;;4.13;56.06;100945.89;1803784;79;21188;-77
2020/12/24 03:28:15;;;;;;;4.12;3.30;;;;;;;4.06;56.30;100946.31;1812833;79;21370;-77
2020/12/24 03:30:43;;;;;;;7.45;5.22;;;;;;;4.10;56.13;100936.36;1815710;79;21234;-76
2020/12/24 03:33:12;;;;;;;7.53;5.30;;;;;;;4.10;56.12;100938.17;1799677;77;21631;-76
2020/12/24 03:35:39;;;;;;;9.40;6.65;;;;;;;4.08;55.99;100929.81;1783726;80;21203;-77
2020/12/24 03:38:08;;;;;;;8.10;5.15;;;;;;;4.05;56.03;100930.05;1783777;80;21267;-79
2020/12/24 03:40:38;;;;;;;6.60;4.50;;;;;;;4.07;56.08;100932.10;1783519;79;21183;-76
2020/12/24 03:43:06;;;;;;;7.60;4.83;;;;;;;4.10;56.02;100932.86;1806143;79;21033;-76
2020/12/24 03:45:35;;;;;;;7.60;4.90;;;;;;;4.09;56.00;100933.34;1816022;78;21048;-76
2020/12/24 03:48:03;;;;;;;8.38;5.20;;;;;;;4.11;55.87;100929.25;1815439;79;21467;-78
2020/12/24 03:50:32;;;;;;;6.10;4.03;;;;;;;4.07;55.92;100940.05;1811590;77;21164;-78
2020/12/24 03:53:00;;;;;;;5.62;4.22;;;;;;;4.07;55.92;100947.16;1804015;79;21357;-76
2020/12/24 03:55:28;;;;;;;6.83;4.83;;;;;;;4.05;55.90;100942.45;1783998;80;21168;-79
2020/12/24 03:57:56;;;;;;;6.78;4.47;;;;;;;4.04;55.99;100929.69;1784275;77;21164;-78
2020/12/24 04:00:24;;;;;;;6.35;4.50;;;;;;;4.04;55.99;100931.01;1801354;79;21159;-77
2020/12/24 04:02:51;;;;;;;7.55;5.40;;;;;;;4.05;55.93;100935.34;1816241;79;21626;-76
2020/12/24 04:05:20;;;;;;;7.10;5.45;;;;;;;4.04;55.97;100934.98;1816385;79;22357;-78
2020/12/24 04:07:51;;;;;;;7.00;4.60;;;;;;;4.04;55.99;100934.98;1815811;79;21443;-79
2020/12/24 04:10:19;;;;;;;7.58;5.20;;;;;;;4.00;55.91;100933.49;1816138;79;21196;-77
2020/12/24 04:12:47;;;;;;;5.92;4.65;;;;;;;3.94;55.96;100939.19;1787130;79;21826;-76
2020/12/24 04:15:15;;;;;;;5.80;4.10;;;;;;;3.95;55.95;100938.26;1797289;79;21192;-78
2020/12/24 04:17:42;;;;;;;7.92;6.10;;;;;;;3.91;55.94;100936.77;1800722;79;21436;-78
2020/12/24 04:20:10;;;;;;;5.62;4.53;;;;;;;3.83;56.06;100927.63;1804510;79;21635;-82
2020/12/24 04:22:39;;;;;;;5.00;3.22;;;;;;;3.84;56.14;100924.87;1791530;79;21209;-77
2020/12/24 04:25:08;;;;;;;6.70;4.62;;;;;;;3.89;56.22;100929.38;1801729;79;21171;-78
2020/12/24 04:27:35;;;;;;;5.83;4.15;;;;;;;3.91;56.04;100929.30;1797499;79;22238;-79
2020/12/24 04:30:04;;;;;;;8.73;4.72;;;;;;;3.86;56.09;100924.75;1790204;80;21659;-79
2020/12/24 04:32:33;;;;;;;8.70;6.45;;;;;;;3.81;56.09;100921.09;1810831;79;21110;-75
2020/12/24 04:35:01;;;;;;;10.13;6.25;;;;;;;3.74;56.16;100929.94;1791316;80;21105;-76
2020/12/24 04:37:29;;;;;;;10.95;6.50;;;;;;;3.69;56.28;100925.91;1814711;79;21188;-78
2020/12/24 04:39:57;;;;;;;11.40;6.37;;;;;;;3.66;56.36;100919.48;1789903;80;21177;-79
2020/12/24 04:42:24;;;;;;;7.65;5.33;;;;;;;3.63;56.38;100919.20;1809152;77;21803;-76
2020/12/24 04:44:52;;;;;;;9.15;5.65;;;;;;;3.65;56.52;100920.44;1792486;80;21586;-79
2020/12/24 04:47:20;;;;;;;7.83;5.17;;;;;;;3.64;56.56;100928.02;1792399;80;21750;-78
2020/12/24 04:49:48;;;;;;;8.23;5.67;;;;;;;3.63;56.56;100921.84;1783726;80;21662;-76
2020/12/24 04:52:15;;;;;;;7.03;5.65;;;;;;;3.62;56.58;100914.86;1784081;80;21606;-77
2020/12/24 04:54:43;;;;;;;8.28;5.53;;;;;;;3.66;56.65;100914.19;1791991;78;21163;-77
2020/12/24 04:57:11;;;;;;;6.67;4.95;;;;;;;3.69;56.56;100904.72;1774740;80;21153;-78
2020/12/24 04:59:39;;;;;;;7.42;5.47;;;;;;;3.69;56.57;100911.34;1783896;80;21287;-78
2020/12/24 05:02:06;;;;;;;7.70;5.28;;;;;;;3.66;56.63;100912.86;1792335;80;21175;-77
2020/12/24 05:04:34;;;;;;;7.12;5.12;;;;;;;3.70;56.59;100915.68;1792153;79;21137;-79
2020/12/24 05:07:07;;;;;;;7.80;5.22;;;;;;;3.71;56.65;100912.92;1783180;80;21354;-77
2020/12/24 05:09:36;;;;;;;7.53;5.33;;;;;;;3.75;56.55;100913.56;1783544;80;21099;-77
2020/12/24 05:12:03;;;;;;;8.33;6.03;;;;;;;3.78;56.40;100906.27;1792017;80;21116;-77
2020/12/24 05:14:31;;;;;;;10.90;6.33;;;;;;;3.78;56.48;100900.97;1792083;79;21093;-77
2020/12/24 05:17:03;;;;;;;10.98;6.78;;;;;;;3.81;56.38;100905.19;1793329;77;21116;-79
2020/12/24 05:19:33;;;;;;;6.85;4.12;;;;;;;3.77;56.52;100895.75;1787032;79;21404;-78
2020/12/24 05:22:18;;;;;;;8.50;5.78;;;;;;;3.76;56.44;100896.71;1790673;79;21639;-77
2020/12/24 05:24:46;;;;;;;7.62;5.25;;;;;;;3.74;56.51;100895.98;1789691;77;21199;-78
2020/12/24 05:27:16;;;;;;;11.45;6.05;;;;;;;3.70;56.59;100895.81;1783042;79;21151;-75
2020/12/24 05:29:45;;;;;;;11.48;7.17;;;;;;;3.65;56.75;100900.09;1803084;77;21584;-78
2020/12/24 05:32:13;;;;;;;9.45;6.92;;;;;;;3.64;56.87;100894.91;1795815;79;22387;-78
2020/12/24 05:34:41;;;;;;;9.05;6.20;;;;;;;3.66;56.96;100894.31;1791812;80;21195;-77
2020/12/24 05:37:17;;;;;;;9.50;6.67;;;;;;;3.69;57.01;100894.97;1782395;80;21180;-77
2020/12/24 05:39:47;;;;;;;7.50;5.47;;;;;;;3.70;56.98;100891.84;1789856;77;21387;-79
2020/12/24 05:42:16;;;;;;;8.55;6.42;;;;;;;3.68;57.05;100888.42;1812406;79;21092;-77
2020/12/24 05:44:44;;;;;;;9.05;5.95;;;;;;;3.68;57.12;100899.02;1796841;79;21371;-76
2020/12/24 05:47:12;;;;;;;10.45;6.87;;;;;;;3.67;57.12;100901.30;1784082;79;21155;-75
2020/12/24 05:49:40;;;;;;;10.58;7.12;;;;;;;3.63;57.27;100909.08;1809347;79;21127;-76
2020/12/24 05:52:09;;;;;;;11.00;7.45;;;;;;;3.60;57.45;100902.69;1802736;79;21104;-79
2020/12/24 05:54:39;;;;;;;10.13;5.87;;;;;;;3.60;57.62;100909.31;1772837;80;21119;-79
2020/12/24 05:57:06;;;;;;;8.80;6.40;;;;;;;3.61;57.67;100909.20;1790896;80;21367;-77
2020/12/24 05:59:34;;;;;;;9.28;6.72;;;;;;;3.60;57.77;100915.93;1796465;78;21450;-77
2020/12/24 06:02:17;;;;;;;10.23;6.62;;;;;;;3.58;57.76;100917.81;1744783;80;21124;-77
2020/12/24 06:04:48;;;;;;;8.33;6.30;;;;;;;3.59;57.86;100916.41;1799102;77;21579;-78
2020/12/24 06:07:32;;;;;;;9.00;6.85;;;;;;;3.61;57.84;100914.97;1799788;77;21084;-78
2020/12/24 06:10:08;;;;;;;9.58;7.03;;;;;;;3.61;57.93;100918.95;1788609;77;22745;-76
2020/12/24 06:12:49;;;;;;;10.88;7.33;;;;;;;3.68;57.97;100913.14;1796091;79;21128;-77
2020/12/24 06:15:19;;;;;;;10.95;6.08;;;;;;;3.73;57.82;100919.46;1788048;77;21785;-78
2020/12/24 06:17:48;;;;;;;10.50;6.53;;;;;;;3.73;57.82;100916.81;1793112;77;21097;-77
2020/12/24 06:20:19;;;;;;;13.68;7.15;;;;;;;3.72;57.81;100912.44;1800792;78;21108;-77
2020/12/24 06:22:49;;;;;;;8.20;5.37;;;;;;;3.69;57.88;100908.69;1793663;79;21932;-77
2020/12/24 06:25:18;;;;;;;8.73;6.20;;;;;;;3.63;58.00;100901.98;1793547;79;21135;-77
2020/12/24 06:27:52;;;;;;;10.05;6.78;;;;;;;3.69;58.06;100906.05;1798290;77;21115;-76
2020/12/24 06:30:28;;;;;;;10.30;7.42;;;;;;;3.70;58.05;100913.88;1797157;77;21634;-79
2020/12/24 06:33:00;;;;;;;12.43;7.40;;;;;;;3.73;58.06;100908.86;1798186;77;21076;-78
2020/12/24 06:35:37;;;;;;;12.95;8.73;;;;;;;3.71;58.05;100917.38;1784958;78;21529;-77
2020/12/24 06:38:09;;;;;;;12.68;7.30;;;;;;;3.68;58.16;100918.89;1774459;80;21124;-79
2020/12/24 06:40:38;;;;;;;11.25;7.12;;;;;;;3.70;58.20;100919.66;1790219;79;21587;-77
2020/12/24 06:43:07;;;;;;;10.35;5.85;;;;;;;3.71;58.25;100919.54;1790756;77;21091;-77
2020/12/24 06:45:39;;;;;;;10.70;6.97;;;;;;;3.74;58.26;100911.87;1793944;79;21125;-78
2020/12/24 06:48:26;;;;;;;9.23;6.28;;;;;;;3.70;58.22;100907.25;1777501;78;22299;-78
2020/12/24 06:51:02;;;;;;;10.23;6.45;;;;;;;3.68;58.33;100909.62;1791098;79;21197;-76
2020/12/24 06:53:38;;;;;;;9.75;6.33;;;;;;;3.70;58.41;100910.38;1782668;79;21104;-77
2020/12/24 06:56:23;;;;;;;9.03;6.22;;;;;;;3.73;58.44;100911.03;1802048;78;21089;-78
2020/12/24 06:58:58;;;;;;;11.20;7.05;;;;;;;3.75;58.50;100902.97;1800055;77;21088;-77
2020/12/24 07:01:32;;;;;;;9.10;6.80;;;;;;;3.77;58.47;100902.38;1800234;77;21363;-75
2020/12/24 07:04:03;;;;;;;12.03;7.67;;;;;;;3.74;58.48;100908.75;1796026;77;21107;-77
2020/12/24 07:06:47;;;;;;;10.35;7.20;;;;;;;3.73;58.57;100906.21;1786746;79;21560;-76
2020/12/24 07:09:26;;;;;;;8.83;5.85;;;;;;;3.76;58.66;100905.98;1797424;77;21088;-76
2020/12/24 07:11:55;;;;;;;12.53;7.75;;;;;;;3.83;58.67;100915.23;1794030;77;21634;-78
2020/12/24 07:14:32;;;;;;;11.88;7.33;;;;;;;3.85;58.63;100913.31;1770030;78;21373;-77
2020/12/24 07:17:14;;;;;;;15.08;8.15;;;;;;;3.89;58.62;100920.11;1786045;78;21137;-78
2020/12/24 07:19:44;;;;;;;9.98;6.22;;;;;;;3.89;58.55;100910.83;1797988;79;21251;-77
2020/12/24 07:22:14;;;;;;;8.98;5.83;;;;;;;3.89;58.51;100912.16;1767991;78;22138;-77
2020/12/24 07:24:57;;;;;;;11.85;8.03;;;;;;;3.87;58.55;100910.09;1793606;77;21141;-77
2020/12/24 07:27:25;;;;;;;8.85;6.37;;;;;;;3.83;58.60;100919.20;1806398;78;21370;-78
2020/12/24 07:29:55;;;;;;;12.03;6.97;;;;;;;3.76;58.74;100911.28;1813547;77;21175;-77
2020/12/24 07:32:22;;;;;;;12.45;7.47;;;;;;;3.71;58.88;100910.75;1808212;77;21152;-78
2020/12/24 07:34:50;;;;;;;12.03;7.17;;;;;;;3.67;59.00;100910.09;1796368;77;21177;-77
2020/12/24 07:37:20;;;;;;;11.75;7.72;;;;;;;3.67;59.08;100905.28;1797091;77;21153;-78
2020/12/24 07:40:10;;;;;;;10.90;6.65;;;;;;;3.67;59.22;100903.95;1778433;79;21449;-78
2020/12/24 07:42:41;;;;;;;11.12;7.40;;;;;;;3.71;59.29;100906.30;1788709;79;21224;-78
2020/12/24 07:45:11;;;;;;;10.03;6.97;;;;;;;3.77;59.26;100893.10;1764725;79;21753;-79
2020/12/24 07:47:46;;;;;;;11.97;7.90;;;;;;;3.75;59.26;100898.52;1743841;80;21100;-78
2020/12/24 07:50:14;;;;;;;9.30;5.33;;;;;;;3.75;59.31;100895.87;1765855;80;21924;-76
2020/12/24 07:52:45;;;;;;;13.65;7.50;;;;;;;3.80;59.40;100897.72;1794142;78;22215;-76
2020/12/24 07:55:13;;;;;;;11.40;7.28;;;;;;;3.84;59.33;100904.16;1786159;78;21177;-77
2020/12/24 07:57:41;;;;;;;11.22;8.23;;;;;;;3.81;59.33;100896.80;1816013;78;21121;-79
2020/12/24 08:00:09;;;;;;;11.75;7.28;;;;;;;3.78;59.44;100894.83;1795903;78;21464;-78
2020/12/24 08:02:39;;;;;;;10.65;7.00;;;;;;;3.80;59.51;100897.72;1798744;78;21468;-77
2020/12/24 08:05:07;;;;;;;11.35;6.30;;;;;;;3.81;59.46;100897.24;1769523;80;21988;-76
2020/12/24 08:07:37;;;;;;;16.55;10.10;;;;;;;3.81;59.40;100894.59;1774742;78;21227;-79
2020/12/24 08:10:11;;;;;;;12.70;8.18;;;;;;;3.79;59.46;100896.52;1773759;80;21233;-79
2020/12/24 08:12:41;;;;;;;13.70;8.50;;;;;;;3.83;59.49;100895.84;1791241;78;21253;-79
2020/12/24 08:15:17;;;;;;;16.30;10.40;;;;;;;3.88;59.53;100903.84;1765253;78;21613;-79
2020/12/24 08:18:02;;;;;;;17.87;10.30;;;;;;;3.92;59.45;100902.68;1780656;78;21380;-77
2020/12/24 08:20:45;;;;;;;13.22;8.65;;;;;;;3.96;59.32;100898.02;1789716;78;21113;-78
2020/12/24 08:23:25;;;;;;;16.05;9.78;;;;;;;4.01;59.28;100906.03;1759344;79;21575;-79
2020/12/24 08:25:55;;;;;;;16.05;9.68;;;;;;;4.44;58.26;100896.40;1792921;78;21567;-80
2020/12/24 08:28:24;;;;;;;13.60;8.33;;;;;;;4.51;58.07;100887.06;1792148;78;21150;-81
2020/12/24 08:30:54;;;;;;;11.95;7.08;;;;;;;4.60;57.85;100890.87;1793213;78;21367;-78
2020/12/24 08:33:23;;;;;;;11.65;7.03;;;;;;;4.42;58.09;100889.53;1789427;78;21588;-77
2020/12/24 08:35:51;;;;;;;12.40;7.60;;;;;;;4.10;58.80;100898.41;1797199;78;21109;-77
2020/12/24 08:38:20;;;;;;;8.53;6.12;;;;;;;3.98;59.11;100883.70;1764308;79;21113;-77
2020/12/24 08:40:48;;;;;;;12.75;7.53;;;;;;;3.95;59.31;100882.61;1797048;78;21196;-78
2020/12/24 08:43:16;;;;;;;16.52;8.58;;;;;;;3.96;59.37;100874.17;1766722;79;21374;-80
2020/12/24 08:45:47;;;;;;;13.45;8.38;;;;;;;3.99;59.52;100877.44;1714634;81;21161;-78
2020/12/24 08:48:32;;;;;;;11.30;7.65;;;;;;;4.04;59.51;100870.05;1765295;80;21132;-79
2020/12/24 08:51:03;;;;;;;14.33;8.28;;;;;;;4.08;59.41;100862.22;1794442;78;21114;-79
2020/12/24 08:53:33;;;;;;;9.60;7.08;;;;;;;4.02;59.57;100863.14;1794180;78;22087;-77
2020/12/24 08:56:15;;;;;;;11.93;7.35;;;;;;;4.00;59.66;100863.25;1795199;78;21318;-77
2020/12/24 08:58:50;;;;;;;9.75;6.53;;;;;;;3.98;59.73;100867.80;1796231;79;21177;-78
2020/12/24 09:01:20;;;;;;;10.80;6.62;;;;;;;3.96;59.89;100873.69;1797083;78;21106;-79
2020/12/24 09:03:48;;;;;;;11.53;6.80;;;;;;;3.94;59.94;100867.63;1794990;78;21482;-79
2020/12/24 09:06:17;;;;;;;10.40;6.25;;;;;;;3.95;60.03;100868.03;1798025;78;21128;-79
2020/12/24 09:08:50;;;;;;;11.05;6.97;;;;;;;3.95;60.12;100856.10;1787368;78;21364;-78
2020/12/24 09:11:28;;;;;;;9.13;6.15;;;;;;;4.00;60.10;100851.81;1792052;78;21167;-78
2020/12/24 09:14:04;;;;;;;11.57;7.22;;;;;;;4.05;60.08;100854.50;1789614;78;21439;-78
2020/12/24 09:16:32;;;;;;;9.48;5.75;;;;;;;4.06;60.04;100846.06;1784040;79;21093;-78
2020/12/24 09:19:11;;;;;;;12.85;8.68;;;;;;;4.06;60.07;100848.72;1789964;79;21108;-79
2020/12/24 09:21:39;;;;;;;9.50;7.45;;;;;;;4.05;60.10;100858.48;1766592;80;22162;-79
2020/12/24 09:24:10;;;;;;;9.58;7.05;;;;;;;4.04;60.14;100843.53;1713992;81;21143;-79
2020/12/24 09:26:50;;;;;;;11.93;6.80;;;;;;;4.08;60.11;100841.02;1774171;78;21092;-77
2020/12/24 09:29:19;;;;;;;7.80;4.62;;;;;;;4.11;60.11;100837.80;1763608;80;21107;-80
2020/12/24 09:31:59;;;;;;;12.15;7.35;;;;;;;4.18;59.94;100837.72;1761834;80;21087;-79
2020/12/24 09:34:28;;;;;;;11.38;7.25;;;;;;;4.14;59.98;100837.59;1759970;80;21336;-79
2020/12/24 09:36:56;;;;;;;12.90;8.65;;;;;;;4.15;60.01;100844.58;1790361;79;21120;-78
2020/12/24 09:39:24;;;;;;;12.03;6.90;;;;;;;4.14;60.10;100834.94;1753799;80;21131;-78
2020/12/24 09:41:52;;;;;;;10.30;7.22;;;;;;;4.19;60.08;100826.18;1764984;80;21101;-80
2020/12/24 09:44:20;;;;;;;10.10;6.03;;;;;;;4.24;59.99;100822.23;1791662;78;21537;-78
2020/12/24 09:46:48;;;;;;;8.08;5.70;;;;;;;4.26;59.84;100822.97;1797139;78;21324;-78
2020/12/24 09:49:20;;;;;;;11.55;7.92;;;;;;;4.44;59.27;100822.14;1792803;78;20993;-79
2020/12/24 09:51:48;;;;;;;7.83;4.50;;;;;;;4.22;59.73;100821.48;1800295;78;21108;-78
2020/12/24 09:54:19;;;;;;;9.20;6.25;;;;;;;4.20;59.88;100822.56;1797989;78;21159;-79
2020/12/24 09:56:48;;;;;;;9.48;7.33;;;;;;;4.23;59.89;100817.05;1758418;78;21191;-79
2020/12/24 09:59:16;;;;;;;10.40;7.85;;;;;;;4.26;59.84;100807.53;1790755;78;21801;-79
2020/12/24 10:01:45;;;;;;;12.68;7.92;;;;;;;4.30;59.70;100809.02;1788622;78;21267;-80
2020/12/24 10:04:16;;;;;;;8.58;6.20;;;;;;;4.35;59.65;100809.53;1795596;78;22425;-81
2020/12/24 10:06:57;;;;;;;9.18;6.80;;;;;;;4.38;59.50;100794.73;1788065;79;22270;-82
2020/12/24 10:09:26;;;;;;;10.28;7.33;;;;;;;4.36;59.55;100795.79;1790776;78;21528;-80
2020/12/24 10:11:54;;;;;;;11.00;7.15;;;;;;;4.32;59.62;100793.37;1786005;78;21391;-79
2020/12/24 10:14:22;;;;;;;11.85;7.80;;;;;;;4.36;59.65;100800.64;1764443;80;21219;-80
2020/12/24 10:17:10;;;;;;;9.60;5.87;;;;;;;4.39;59.56;100786.30;1759569;81;21191;-81
2020/12/24 10:19:38;;;;;;;;;;;;;;;4.37;59.52;100773.16;1787202;79;21180;-80
2020/12/24 10:22:08;;;;;;;9.35;6.12;;;;;;;4.35;59.64;100775.05;1751978;80;21534;-79
2020/12/24 10:24:38;;;;;;;9.60;6.62;;;;;;;4.63;59.12;100765.09;1792450;78;21592;-77
2020/12/24 10:27:12;;;;;;;9.90;6.87;;;;;;;4.84;58.52;100768.83;1754907;80;21234;-79
2020/12/24 10:29:41;;;;;;;9.73;6.85;;;;;;;4.61;58.86;100763.05;1764696;79;21177;-78
2020/12/24 10:32:11;;;;;;;10.90;8.18;;;;;;;4.38;59.59;100758.94;1786523;78;21030;-79
2020/12/24 10:34:41;;;;;;;9.98;6.97;;;;;;;4.39;59.81;100761.95;1780675;78;21632;-78
2020/12/24 10:37:09;;;;;;;9.80;7.10;;;;;;;4.44;59.81;100758.48;1791064;78;21239;-79
2020/12/24 10:39:40;;;;;;;11.63;8.10;;;;;;;4.43;59.75;100750.64;1793481;78;21207;-77
2020/12/24 10:42:08;;;;;;;10.35;7.53;;;;;;;4.40;59.77;100746.39;1764980;79;21240;-78
2020/12/24 10:44:38;;;;;;;10.60;7.55;;;;;;;4.39;59.94;100734.09;1795952;78;21223;-79
2020/12/24 10:47:06;;;;;;;12.18;8.55;;;;;;;4.39;59.92;100727.47;1794529;78;21228;-77
2020/12/24 10:49:34;;;;;;;12.28;8.28;;;;;;;4.38;60.05;100729.77;1766943;80;21522;-80
2020/12/24 10:52:02;;;;;;;10.43;7.22;;;;;;;4.42;60.01;100724.61;1760473;80;21754;-77
2020/12/24 10:54:30;;;;;;;11.30;7.92;;;;;;;4.44;60.08;100722.67;1755484;80;21183;-81
2020/12/24 10:56:59;;;;;;;11.65;8.18;;;;;;;4.47;60.06;100721.13;1749465;80;21191;-80
2020/12/24 10:59:29;;;;;;;13.58;8.80;;;;;;;4.45;60.03;100709.80;1753728;80;21188;-79
2020/12/24 11:02:03;;;;;;;11.95;7.58;;;;;;;4.41;60.10;100710.14;1751685;80;21804;-79
2020/12/24 11:04:33;;;;;;;13.68;8.85;;;;;;;4.35;60.18;100703.45;1793341;78;22115;-77
2020/12/24 11:07:07;;;;;;;11.30;8.43;;;;;;;4.29;60.34;100706.08;1761154;79;21231;-79
2020/12/24 11:09:59;;;;;;;13.22;8.65;;;;;;;4.36;60.47;100699.87;1830861;76;22727;-79
2020/12/24 11:12:30;;;;;;;11.38;8.25;;;;;;;4.32;60.49;100701.89;1825807;77;21172;-80
2020/12/24 11:15:02;;;;;;;8.93;6.12;;;;;;;4.34;60.58;100696.47;1838775;77;22117;-81
2020/12/24 11:17:35;;;;;;;10.25;7.92;;;;;;;4.39;60.58;100696.97;1847152;77;21455;-80
2020/12/24 11:20:03;;;;;;;13.90;8.63;;;;;;;4.47;60.56;100698.59;1812138;77;21176;-81
2020/12/24 11:22:32;;;;;;;7.95;6.17;;;;;;;4.53;60.50;100695.47;1823210;77;21186;-81
2020/12/24 11:25:02;;;;;;;13.10;9.18;;;;;;;4.62;60.38;100696.59;1822602;76;21734;-80
2020/12/24 11:27:31;;;;;;;13.90;8.55;;;;;;;4.64;60.27;100703.98;1821974;77;22053;-79
2020/12/24 11:29:59;;;;;;;9.00;6.75;;;;;;;4.72;60.17;100706.88;1829164;76;21229;-81
2020/12/24 11:32:33;;;;;;;13.85;9.13;;;;;;;4.77;60.00;100708.73;1808316;78;21179;-82
2020/12/24 11:35:24;;;;;;;14.87;8.90;;;;;;;4.79;59.86;100714.77;1774981;78;21117;-80
2020/12/24 11:38:00;;;;;;;11.85;8.83;;;;;;;4.86;59.76;100712.97;1790954;78;21099;-79
2020/12/24 11:40:32;;;;;;;15.58;9.73;;;;;;;4.83;59.67;100706.09;1806710;78;21105;-80
2020/12/24 11:43:06;;;;;;;10.98;8.00;;;;;;;4.81;59.66;100714.64;1809608;78;21620;-79